sensor_id;sensor_type;location;lat;lon;timestamp;P1;durP1;ratioP1;P2;durP2;ratioP2
5650;SDS011;40241;52.684;9.758;2024-01-06T00:02:05;9.83;;;7.10;;
5650;SDS011;40241;52.684;9.758;2024-01-06T00:04:30;8.73;;;7.07;;
5650;SDS011;40241;52.684;9.758;2024-01-06T00:06:56;10.30;;;6.47;;
5650;SDS011;40241;52.684;9.758;2024-01-06T00:09:21;9.67;;;6.67;;
5650;SDS011;40241;52.684;9.758;2024-01-06T00:11:47;11.93;;;7.30;;
5650;SDS011;40241;52.684;9.758;2024-01-06T00:14:12;10.60;;;7.33;;
5650;SDS011;40241;52.684;9.758;2024-01-06T00:16:37;10.67;;;7.40;;
5650;SDS011;40241;52.684;9.758;2024-01-06T00:19:03;8.90;;;6.83;;
5650;SDS011;40241;52.684;9.758;2024-01-06T00:21:28;9.43;;;7.17;;
5650;SDS011;40241;52.684;9.758;2024-01-06T00:23:53;10.63;;;6.57;;
5650;SDS011;40241;52.684;9.758;2024-01-06T00:26:21;10.90;;;6.40;;
5650;SDS011;40241;52.684;9.758;2024-01-06T00:28:46;11.50;;;7.00;;
5650;SDS011;40241;52.684;9.758;2024-01-06T00:31:14;9.13;;;6.50;;
5650;SDS011;40241;52.684;9.758;2024-01-06T00:33:40;14.53;;;6.97;;
5650;SDS011;40241;52.684;9.758;2024-01-06T00:36:06;14.60;;;6.87;;
5650;SDS011;40241;52.684;9.758;2024-01-06T00:38:32;9.17;;;6.47;;
5650;SDS011;40241;52.684;9.758;2024-01-06T00:40:57;10.83;;;7.00;;
5650;SDS011;40241;52.684;9.758;2024-01-06T00:43:22;9.37;;;6.80;;
5650;SDS011;40241;52.684;9.758;2024-01-06T00:45:48;11.17;;;7.30;;
5650;SDS011;40241;52.684;9.758;2024-01-06T00:48:13;11.50;;;6.90;;
5650;SDS011;40241;52.684;9.758;2024-01-06T00:50:39;10.13;;;7.20;;
5650;SDS011;40241;52.684;9.758;2024-01-06T00:53:04;10.97;;;7.57;;
5650;SDS011;40241;52.684;9.758;2024-01-06T00:55:29;12.40;;;7.70;;
5650;SDS011;40241;52.684;9.758;2024-01-06T00:57:55;15.17;;;8.30;;
5650;SDS011;40241;52.684;9.758;2024-01-06T01:00:20;11.20;;;7.27;;
5650;SDS011;40241;52.684;9.758;2024-01-06T01:02:45;10.73;;;7.50;;
5650;SDS011;40241;52.684;9.758;2024-01-06T01:05:11;10.40;;;7.37;;
5650;SDS011;40241;52.684;9.758;2024-01-06T01:07:36;10.10;;;7.57;;
5650;SDS011;40241;52.684;9.758;2024-01-06T01:10:01;9.17;;;6.77;;
5650;SDS011;40241;52.684;9.758;2024-01-06T01:12:27;10.10;;;6.90;;
5650;SDS011;40241;52.684;9.758;2024-01-06T01:14:52;10.70;;;7.33;;
5650;SDS011;40241;52.684;9.758;2024-01-06T01:17:18;9.80;;;6.47;;
5650;SDS011;40241;52.684;9.758;2024-01-06T01:19:43;12.07;;;7.47;;
5650;SDS011;40241;52.684;9.758;2024-01-06T01:22:09;12.20;;;8.43;;
5650;SDS011;40241;52.684;9.758;2024-01-06T01:24:35;11.07;;;7.23;;
5650;SDS011;40241;52.684;9.758;2024-01-06T01:27:00;10.73;;;7.30;;
5650;SDS011;40241;52.684;9.758;2024-01-06T01:29:25;11.20;;;7.67;;
5650;SDS011;40241;52.684;9.758;2024-01-06T01:31:51;10.47;;;7.20;;
5650;SDS011;40241;52.684;9.758;2024-01-06T01:34:16;11.07;;;7.03;;
5650;SDS011;40241;52.684;9.758;2024-01-06T01:36:42;10.27;;;6.33;;
5650;SDS011;40241;52.684;9.758;2024-01-06T01:39:07;11.20;;;7.27;;
5650;SDS011;40241;52.684;9.758;2024-01-06T01:41:33;12.73;;;7.80;;
5650;SDS011;40241;52.684;9.758;2024-01-06T01:43:58;10.10;;;7.27;;
5650;SDS011;40241;52.684;9.758;2024-01-06T01:46:25;11.67;;;7.80;;
5650;SDS011;40241;52.684;9.758;2024-01-06T01:48:52;11.93;;;7.57;;
5650;SDS011;40241;52.684;9.758;2024-01-06T01:51:19;8.93;;;6.70;;
5650;SDS011;40241;52.684;9.758;2024-01-06T01:53:45;12.43;;;7.57;;
5650;SDS011;40241;52.684;9.758;2024-01-06T01:56:10;12.53;;;7.97;;
5650;SDS011;40241;52.684;9.758;2024-01-06T01:58:36;13.73;;;8.07;;
5650;SDS011;40241;52.684;9.758;2024-01-06T02:01:02;9.80;;;7.30;;
5650;SDS011;40241;52.684;9.758;2024-01-06T02:03:27;11.83;;;6.87;;
5650;SDS011;40241;52.684;9.758;2024-01-06T02:05:55;12.13;;;7.70;;
5650;SDS011;40241;52.684;9.758;2024-01-06T02:08:21;11.30;;;7.67;;
5650;SDS011;40241;52.684;9.758;2024-01-06T02:10:46;9.40;;;7.10;;
5650;SDS011;40241;52.684;9.758;2024-01-06T02:13:12;11.37;;;7.60;;
5650;SDS011;40241;52.684;9.758;2024-01-06T02:15:37;11.60;;;8.10;;
5650;SDS011;40241;52.684;9.758;2024-01-06T02:18:03;10.10;;;7.00;;
5650;SDS011;40241;52.684;9.758;2024-01-06T02:20:29;11.80;;;7.70;;
5650;SDS011;40241;52.684;9.758;2024-01-06T02:22:55;13.63;;;7.83;;
5650;SDS011;40241;52.684;9.758;2024-01-06T02:25:22;9.63;;;7.03;;
5650;SDS011;40241;52.684;9.758;2024-01-06T02:27:47;9.00;;;6.47;;
5650;SDS011;40241;52.684;9.758;2024-01-06T02:30:13;9.03;;;6.57;;
5650;SDS011;40241;52.684;9.758;2024-01-06T02:32:38;8.70;;;6.23;;
5650;SDS011;40241;52.684;9.758;2024-01-06T02:35:04;7.53;;;6.00;;
5650;SDS011;40241;52.684;9.758;2024-01-06T02:37:29;6.30;;;5.13;;
5650;SDS011;40241;52.684;9.758;2024-01-06T02:39:54;6.77;;;5.37;;
5650;SDS011;40241;52.684;9.758;2024-01-06T02:42:20;8.10;;;6.17;;
5650;SDS011;40241;52.684;9.758;2024-01-06T02:44:46;8.43;;;5.60;;
5650;SDS011;40241;52.684;9.758;2024-01-06T02:47:11;8.87;;;6.27;;
5650;SDS011;40241;52.684;9.758;2024-01-06T02:49:36;8.80;;;6.30;;
5650;SDS011;40241;52.684;9.758;2024-01-06T02:52:02;8.77;;;6.50;;
5650;SDS011;40241;52.684;9.758;2024-01-06T02:54:27;10.77;;;6.40;;
5650;SDS011;40241;52.684;9.758;2024-01-06T02:56:52;8.50;;;5.80;;
5650;SDS011;40241;52.684;9.758;2024-01-06T02:59:18;8.70;;;6.43;;
5650;SDS011;40241;52.684;9.758;2024-01-06T03:01:43;8.70;;;6.40;;
5650;SDS011;40241;52.684;9.758;2024-01-06T03:04:08;9.50;;;5.90;;
5650;SDS011;40241;52.684;9.758;2024-01-06T03:06:34;11.20;;;6.57;;
5650;SDS011;40241;52.684;9.758;2024-01-06T03:08:59;7.97;;;5.83;;
5650;SDS011;40241;52.684;9.758;2024-01-06T03:11:25;10.13;;;6.50;;
5650;SDS011;40241;52.684;9.758;2024-01-06T03:13:50;8.63;;;6.30;;
5650;SDS011;40241;52.684;9.758;2024-01-06T03:16:15;9.40;;;6.47;;
5650;SDS011;40241;52.684;9.758;2024-01-06T03:18:41;10.50;;;7.23;;
5650;SDS011;40241;52.684;9.758;2024-01-06T03:21:16;11.03;;;6.70;;
5650;SDS011;40241;52.684;9.758;2024-01-06T03:23:42;12.67;;;7.87;;
5650;SDS011;40241;52.684;9.758;2024-01-06T03:26:07;9.73;;;6.83;;
5650;SDS011;40241;52.684;9.758;2024-01-06T03:28:32;9.43;;;6.47;;
5650;SDS011;40241;52.684;9.758;2024-01-06T03:30:58;9.00;;;6.27;;
5650;SDS011;40241;52.684;9.758;2024-01-06T03:33:23;10.63;;;7.10;;
5650;SDS011;40241;52.684;9.758;2024-01-06T03:35:48;11.10;;;6.83;;
5650;SDS011;40241;52.684;9.758;2024-01-06T03:38:13;12.80;;;7.40;;
5650;SDS011;40241;52.684;9.758;2024-01-06T03:40:39;10.33;;;6.73;;
5650;SDS011;40241;52.684;9.758;2024-01-06T03:43:04;10.00;;;6.50;;
5650;SDS011;40241;52.684;9.758;2024-01-06T03:45:29;11.17;;;7.10;;
5650;SDS011;40241;52.684;9.758;2024-01-06T03:47:55;8.30;;;5.90;;
5650;SDS011;40241;52.684;9.758;2024-01-06T03:50:20;9.03;;;6.20;;
5650;SDS011;40241;52.684;9.758;2024-01-06T03:52:46;9.33;;;6.90;;
5650;SDS011;40241;52.684;9.758;2024-01-06T03:55:11;9.40;;;6.77;;
5650;SDS011;40241;52.684;9.758;2024-01-06T03:57:37;10.17;;;6.87;;
5650;SDS011;40241;52.684;9.758;2024-01-06T04:00:02;9.50;;;6.30;;
5650;SDS011;40241;52.684;9.758;2024-01-06T04:02:28;13.87;;;7.50;;
5650;SDS011;40241;52.684;9.758;2024-01-06T04:04:53;10.20;;;6.70;;
5650;SDS011;40241;52.684;9.758;2024-01-06T04:07:19;10.27;;;7.30;;
5650;SDS011;40241;52.684;9.758;2024-01-06T04:09:44;10.43;;;6.83;;
5650;SDS011;40241;52.684;9.758;2024-01-06T04:12:09;10.23;;;6.90;;
5650;SDS011;40241;52.684;9.758;2024-01-06T04:14:35;11.43;;;7.30;;
5650;SDS011;40241;52.684;9.758;2024-01-06T04:17:00;12.47;;;8.30;;
5650;SDS011;40241;52.684;9.758;2024-01-06T04:19:25;13.50;;;7.90;;
5650;SDS011;40241;52.684;9.758;2024-01-06T04:21:50;9.47;;;6.83;;
5650;SDS011;40241;52.684;9.758;2024-01-06T04:24:16;12.03;;;7.63;;
5650;SDS011;40241;52.684;9.758;2024-01-06T04:26:41;10.63;;;6.93;;
5650;SDS011;40241;52.684;9.758;2024-01-06T04:29:09;10.67;;;7.30;;
5650;SDS011;40241;52.684;9.758;2024-01-06T04:31:35;10.73;;;7.63;;
5650;SDS011;40241;52.684;9.758;2024-01-06T04:34:00;10.20;;;6.83;;
5650;SDS011;40241;52.684;9.758;2024-01-06T04:36:26;11.80;;;8.07;;
5650;SDS011;40241;52.684;9.758;2024-01-06T04:38:51;13.27;;;8.13;;
5650;SDS011;40241;52.684;9.758;2024-01-06T04:41:16;13.07;;;8.37;;
5650;SDS011;40241;52.684;9.758;2024-01-06T04:43:41;13.60;;;7.77;;
5650;SDS011;40241;52.684;9.758;2024-01-06T04:46:07;12.30;;;7.87;;
5650;SDS011;40241;52.684;9.758;2024-01-06T04:48:32;13.40;;;7.83;;
5650;SDS011;40241;52.684;9.758;2024-01-06T04:50:58;12.17;;;7.37;;
5650;SDS011;40241;52.684;9.758;2024-01-06T04:53:23;16.10;;;7.50;;
5650;SDS011;40241;52.684;9.758;2024-01-06T04:55:48;13.60;;;8.70;;
5650;SDS011;40241;52.684;9.758;2024-01-06T04:58:14;12.80;;;7.60;;
5650;SDS011;40241;52.684;9.758;2024-01-06T05:00:39;13.63;;;8.07;;
5650;SDS011;40241;52.684;9.758;2024-01-06T05:03:05;13.40;;;7.50;;
5650;SDS011;40241;52.684;9.758;2024-01-06T05:05:30;14.83;;;8.10;;
5650;SDS011;40241;52.684;9.758;2024-01-06T05:07:55;11.00;;;7.53;;
5650;SDS011;40241;52.684;9.758;2024-01-06T05:10:21;12.70;;;8.00;;
5650;SDS011;40241;52.684;9.758;2024-01-06T05:12:46;13.77;;;8.10;;
5650;SDS011;40241;52.684;9.758;2024-01-06T05:15:11;15.00;;;8.57;;
5650;SDS011;40241;52.684;9.758;2024-01-06T05:17:36;14.20;;;8.20;;
5650;SDS011;40241;52.684;9.758;2024-01-06T05:20:02;14.83;;;9.10;;
5650;SDS011;40241;52.684;9.758;2024-01-06T05:22:28;12.80;;;8.07;;
5650;SDS011;40241;52.684;9.758;2024-01-06T05:24:54;14.23;;;8.17;;
5650;SDS011;40241;52.684;9.758;2024-01-06T05:27:19;12.40;;;7.57;;
5650;SDS011;40241;52.684;9.758;2024-01-06T05:29:45;13.93;;;8.03;;
5650;SDS011;40241;52.684;9.758;2024-01-06T05:32:10;14.13;;;8.33;;
5650;SDS011;40241;52.684;9.758;2024-01-06T05:34:36;10.67;;;6.97;;
5650;SDS011;40241;52.684;9.758;2024-01-06T05:37:01;14.90;;;9.10;;
5650;SDS011;40241;52.684;9.758;2024-01-06T05:39:26;17.13;;;8.90;;
5650;SDS011;40241;52.684;9.758;2024-01-06T05:41:52;14.10;;;8.97;;
5650;SDS011;40241;52.684;9.758;2024-01-06T05:44:17;13.73;;;8.60;;
5650;SDS011;40241;52.684;9.758;2024-01-06T05:46:42;12.03;;;7.73;;
5650;SDS011;40241;52.684;9.758;2024-01-06T05:49:08;12.93;;;7.83;;
5650;SDS011;40241;52.684;9.758;2024-01-06T05:51:35;14.80;;;8.80;;
5650;SDS011;40241;52.684;9.758;2024-01-06T05:54:02;10.63;;;7.00;;
5650;SDS011;40241;52.684;9.758;2024-01-06T05:56:27;11.50;;;7.83;;
5650;SDS011;40241;52.684;9.758;2024-01-06T05:58:53;12.20;;;7.60;;
5650;SDS011;40241;52.684;9.758;2024-01-06T06:01:19;13.17;;;7.73;;
5650;SDS011;40241;52.684;9.758;2024-01-06T06:03:46;11.67;;;7.20;;
5650;SDS011;40241;52.684;9.758;2024-01-06T06:06:12;11.03;;;7.50;;
5650;SDS011;40241;52.684;9.758;2024-01-06T06:08:37;10.50;;;7.07;;
5650;SDS011;40241;52.684;9.758;2024-01-06T06:11:03;9.77;;;7.00;;
5650;SDS011;40241;52.684;9.758;2024-01-06T06:13:35;10.80;;;6.40;;
5650;SDS011;40241;52.684;9.758;2024-01-06T06:16:05;10.87;;;7.23;;
5650;SDS011;40241;52.684;9.758;2024-01-06T06:18:31;15.60;;;6.43;;
5650;SDS011;40241;52.684;9.758;2024-01-06T06:20:58;9.17;;;5.67;;
5650;SDS011;40241;52.684;9.758;2024-01-06T06:23:24;10.87;;;6.57;;
5650;SDS011;40241;52.684;9.758;2024-01-06T06:25:49;12.43;;;6.40;;
5650;SDS011;40241;52.684;9.758;2024-01-06T06:28:14;12.23;;;6.60;;
5650;SDS011;40241;52.684;9.758;2024-01-06T06:30:40;9.17;;;6.30;;
5650;SDS011;40241;52.684;9.758;2024-01-06T06:33:05;10.57;;;6.67;;
5650;SDS011;40241;52.684;9.758;2024-01-06T06:35:30;11.57;;;6.43;;
5650;SDS011;40241;52.684;9.758;2024-01-06T06:37:56;8.50;;;5.70;;
5650;SDS011;40241;52.684;9.758;2024-01-06T06:40:21;9.50;;;6.00;;
5650;SDS011;40241;52.684;9.758;2024-01-06T06:42:46;12.47;;;6.87;;
5650;SDS011;40241;52.684;9.758;2024-01-06T06:45:12;9.53;;;6.20;;
5650;SDS011;40241;52.684;9.758;2024-01-06T06:47:38;10.60;;;5.80;;
5650;SDS011;40241;52.684;9.758;2024-01-06T06:50:03;10.10;;;6.27;;
5650;SDS011;40241;52.684;9.758;2024-01-06T06:52:29;10.17;;;6.80;;
5650;SDS011;40241;52.684;9.758;2024-01-06T06:54:54;10.37;;;7.00;;
5650;SDS011;40241;52.684;9.758;2024-01-06T06:57:19;11.20;;;7.07;;
5650;SDS011;40241;52.684;9.758;2024-01-06T06:59:45;11.17;;;6.70;;
5650;SDS011;40241;52.684;9.758;2024-01-06T07:02:10;13.03;;;7.00;;
5650;SDS011;40241;52.684;9.758;2024-01-06T07:04:36;8.77;;;6.10;;
5650;SDS011;40241;52.684;9.758;2024-01-06T07:07:01;12.43;;;6.77;;
5650;SDS011;40241;52.684;9.758;2024-01-06T07:09:27;15.93;;;7.33;;
5650;SDS011;40241;52.684;9.758;2024-01-06T07:11:52;12.03;;;6.40;;
5650;SDS011;40241;52.684;9.758;2024-01-06T07:14:17;9.67;;;6.80;;
5650;SDS011;40241;52.684;9.758;2024-01-06T07:16:42;9.33;;;6.33;;
5650;SDS011;40241;52.684;9.758;2024-01-06T07:19:08;11.10;;;5.77;;
5650;SDS011;40241;52.684;9.758;2024-01-06T07:21:33;10.97;;;7.17;;
5650;SDS011;40241;52.684;9.758;2024-01-06T07:23:58;11.63;;;6.87;;
5650;SDS011;40241;52.684;9.758;2024-01-06T07:26:26;9.13;;;6.17;;
5650;SDS011;40241;52.684;9.758;2024-01-06T07:28:51;8.40;;;6.03;;
5650;SDS011;40241;52.684;9.758;2024-01-06T07:31:16;12.33;;;5.97;;
5650;SDS011;40241;52.684;9.758;2024-01-06T07:33:42;8.90;;;6.63;;
5650;SDS011;40241;52.684;9.758;2024-01-06T07:36:07;8.83;;;5.80;;
5650;SDS011;40241;52.684;9.758;2024-01-06T07:38:33;6.97;;;5.33;;
5650;SDS011;40241;52.684;9.758;2024-01-06T07:40:58;7.77;;;5.57;;
5650;SDS011;40241;52.684;9.758;2024-01-06T07:43:23;7.90;;;5.20;;
5650;SDS011;40241;52.684;9.758;2024-01-06T07:45:49;6.33;;;5.00;;
5650;SDS011;40241;52.684;9.758;2024-01-06T07:48:15;6.83;;;5.00;;
5650;SDS011;40241;52.684;9.758;2024-01-06T07:50:41;6.43;;;4.63;;
5650;SDS011;40241;52.684;9.758;2024-01-06T07:53:06;4.57;;;3.97;;
5650;SDS011;40241;52.684;9.758;2024-01-06T07:55:32;6.80;;;4.63;;
5650;SDS011;40241;52.684;9.758;2024-01-06T07:57:57;6.60;;;4.47;;
5650;SDS011;40241;52.684;9.758;2024-01-06T08:00:22;5.50;;;3.97;;
5650;SDS011;40241;52.684;9.758;2024-01-06T08:02:48;5.57;;;4.40;;
5650;SDS011;40241;52.684;9.758;2024-01-06T08:05:13;5.37;;;3.80;;
5650;SDS011;40241;52.684;9.758;2024-01-06T08:07:38;6.20;;;4.40;;
5650;SDS011;40241;52.684;9.758;2024-01-06T08:10:04;4.03;;;3.60;;
5650;SDS011;40241;52.684;9.758;2024-01-06T08:12:30;5.40;;;3.90;;
5650;SDS011;40241;52.684;9.758;2024-01-06T08:14:56;3.67;;;3.33;;
5650;SDS011;40241;52.684;9.758;2024-01-06T08:17:21;5.10;;;3.80;;
5650;SDS011;40241;52.684;9.758;2024-01-06T08:19:47;4.07;;;3.50;;
5650;SDS011;40241;52.684;9.758;2024-01-06T08:22:12;3.87;;;3.13;;
5650;SDS011;40241;52.684;9.758;2024-01-06T08:24:38;4.57;;;3.50;;
5650;SDS011;40241;52.684;9.758;2024-01-06T08:27:03;4.60;;;3.50;;
5650;SDS011;40241;52.684;9.758;2024-01-06T08:29:29;2.93;;;2.63;;
5650;SDS011;40241;52.684;9.758;2024-01-06T08:31:55;3.80;;;3.10;;
5650;SDS011;40241;52.684;9.758;2024-01-06T08:34:20;3.03;;;2.73;;
5650;SDS011;40241;52.684;9.758;2024-01-06T08:36:46;3.10;;;2.60;;
5650;SDS011;40241;52.684;9.758;2024-01-06T08:39:11;3.03;;;2.63;;
5650;SDS011;40241;52.684;9.758;2024-01-06T08:41:37;2.60;;;2.40;;
5650;SDS011;40241;52.684;9.758;2024-01-06T08:44:03;3.30;;;2.80;;
5650;SDS011;40241;52.684;9.758;2024-01-06T08:46:29;3.03;;;2.83;;
5650;SDS011;40241;52.684;9.758;2024-01-06T08:48:55;3.80;;;3.23;;
5650;SDS011;40241;52.684;9.758;2024-01-06T08:51:21;5.93;;;3.30;;
5650;SDS011;40241;52.684;9.758;2024-01-06T08:53:46;3.40;;;3.07;;
5650;SDS011;40241;52.684;9.758;2024-01-06T08:56:11;8.07;;;5.83;;
5650;SDS011;40241;52.684;9.758;2024-01-06T08:58:37;6.47;;;4.87;;
5650;SDS011;40241;52.684;9.758;2024-01-06T09:01:02;4.93;;;3.93;;
5650;SDS011;40241;52.684;9.758;2024-01-06T09:03:28;5.03;;;4.00;;
5650;SDS011;40241;52.684;9.758;2024-01-06T09:05:54;4.60;;;4.00;;
5650;SDS011;40241;52.684;9.758;2024-01-06T09:08:21;4.23;;;3.80;;
5650;SDS011;40241;52.684;9.758;2024-01-06T09:10:46;5.80;;;3.70;;
5650;SDS011;40241;52.684;9.758;2024-01-06T09:13:11;5.10;;;3.77;;
5650;SDS011;40241;52.684;9.758;2024-01-06T09:15:37;6.20;;;3.93;;
5650;SDS011;40241;52.684;9.758;2024-01-06T09:18:02;4.83;;;3.53;;
5650;SDS011;40241;52.684;9.758;2024-01-06T09:20:28;3.80;;;3.40;;
5650;SDS011;40241;52.684;9.758;2024-01-06T09:22:53;4.20;;;3.80;;
5650;SDS011;40241;52.684;9.758;2024-01-06T09:25:19;4.50;;;3.90;;
5650;SDS011;40241;52.684;9.758;2024-01-06T09:27:44;6.63;;;4.60;;
5650;SDS011;40241;52.684;9.758;2024-01-06T09:30:09;7.30;;;3.70;;
5650;SDS011;40241;52.684;9.758;2024-01-06T09:32:36;6.37;;;4.23;;
5650;SDS011;40241;52.684;9.758;2024-01-06T09:35:01;4.33;;;3.80;;
5650;SDS011;40241;52.684;9.758;2024-01-06T09:37:26;6.80;;;4.97;;
5650;SDS011;40241;52.684;9.758;2024-01-06T09:39:51;6.20;;;4.30;;
5650;SDS011;40241;52.684;9.758;2024-01-06T09:42:17;9.03;;;5.03;;
5650;SDS011;40241;52.684;9.758;2024-01-06T09:44:42;7.17;;;5.37;;
5650;SDS011;40241;52.684;9.758;2024-01-06T09:47:09;7.30;;;6.00;;
5650;SDS011;40241;52.684;9.758;2024-01-06T09:49:37;6.87;;;5.13;;
5650;SDS011;40241;52.684;9.758;2024-01-06T09:52:04;7.33;;;5.30;;
5650;SDS011;40241;52.684;9.758;2024-01-06T09:54:39;10.43;;;6.30;;
5650;SDS011;40241;52.684;9.758;2024-01-06T09:57:11;8.13;;;5.10;;
5650;SDS011;40241;52.684;9.758;2024-01-06T09:59:37;9.50;;;6.00;;
5650;SDS011;40241;52.684;9.758;2024-01-06T10:02:03;6.97;;;5.00;;
5650;SDS011;40241;52.684;9.758;2024-01-06T10:04:29;8.20;;;5.50;;
5650;SDS011;40241;52.684;9.758;2024-01-06T10:06:55;7.17;;;5.50;;
5650;SDS011;40241;52.684;9.758;2024-01-06T10:09:29;8.33;;;5.23;;
5650;SDS011;40241;52.684;9.758;2024-01-06T10:11:55;8.13;;;5.80;;
5650;SDS011;40241;52.684;9.758;2024-01-06T10:14:22;7.90;;;5.10;;
5650;SDS011;40241;52.684;9.758;2024-01-06T10:16:49;8.00;;;6.07;;
5650;SDS011;40241;52.684;9.758;2024-01-06T10:19:15;7.67;;;5.40;;
5650;SDS011;40241;52.684;9.758;2024-01-06T10:21:41;5.90;;;4.93;;
5650;SDS011;40241;52.684;9.758;2024-01-06T10:24:09;8.63;;;5.50;;
5650;SDS011;40241;52.684;9.758;2024-01-06T10:26:35;7.30;;;4.97;;
5650;SDS011;40241;52.684;9.758;2024-01-06T10:29:00;7.63;;;5.37;;
5650;SDS011;40241;52.684;9.758;2024-01-06T10:31:26;8.00;;;5.40;;
5650;SDS011;40241;52.684;9.758;2024-01-06T10:33:51;8.60;;;5.40;;
5650;SDS011;40241;52.684;9.758;2024-01-06T10:36:17;8.33;;;5.10;;
5650;SDS011;40241;52.684;9.758;2024-01-06T10:38:44;10.47;;;5.67;;
5650;SDS011;40241;52.684;9.758;2024-01-06T10:41:09;10.20;;;6.30;;
5650;SDS011;40241;52.684;9.758;2024-01-06T10:43:36;8.13;;;5.37;;
5650;SDS011;40241;52.684;9.758;2024-01-06T10:46:05;10.13;;;6.40;;
5650;SDS011;40241;52.684;9.758;2024-01-06T10:48:35;9.87;;;5.70;;
5650;SDS011;40241;52.684;9.758;2024-01-06T10:51:03;11.27;;;5.60;;
5650;SDS011;40241;52.684;9.758;2024-01-06T10:53:32;11.20;;;5.87;;
5650;SDS011;40241;52.684;9.758;2024-01-06T10:55:58;10.10;;;5.53;;
5650;SDS011;40241;52.684;9.758;2024-01-06T10:58:24;9.87;;;5.80;;
5650;SDS011;40241;52.684;9.758;2024-01-06T11:00:50;10.47;;;5.73;;
5650;SDS011;40241;52.684;9.758;2024-01-06T11:03:16;9.63;;;6.10;;
5650;SDS011;40241;52.684;9.758;2024-01-06T11:05:43;9.53;;;5.60;;
5650;SDS011;40241;52.684;9.758;2024-01-06T11:08:08;8.90;;;4.97;;
5650;SDS011;40241;52.684;9.758;2024-01-06T11:10:35;8.77;;;5.30;;
5650;SDS011;40241;52.684;9.758;2024-01-06T11:13:08;7.00;;;5.10;;
5650;SDS011;40241;52.684;9.758;2024-01-06T11:15:49;9.20;;;5.97;;
5650;SDS011;40241;52.684;9.758;2024-01-06T11:18:36;9.53;;;6.03;;
5650;SDS011;40241;52.684;9.758;2024-01-06T11:23:42;10.67;;;5.90;;
5650;SDS011;40241;52.684;9.758;2024-01-06T11:26:07;10.20;;;6.43;;
5650;SDS011;40241;52.684;9.758;2024-01-06T11:28:53;11.07;;;6.77;;
5650;SDS011;40241;52.684;9.758;2024-01-06T11:31:20;11.17;;;6.43;;
5650;SDS011;40241;52.684;9.758;2024-01-06T11:33:46;11.03;;;7.23;;
5650;SDS011;40241;52.684;9.758;2024-01-06T11:36:14;10.30;;;6.57;;
5650;SDS011;40241;52.684;9.758;2024-01-06T11:38:40;11.20;;;6.70;;
5650;SDS011;40241;52.684;9.758;2024-01-06T11:41:06;11.03;;;6.90;;
5650;SDS011;40241;52.684;9.758;2024-01-06T11:43:34;13.63;;;7.60;;
5650;SDS011;40241;52.684;9.758;2024-01-06T11:46:01;13.10;;;7.70;;
5650;SDS011;40241;52.684;9.758;2024-01-06T11:48:28;13.17;;;6.97;;
5650;SDS011;40241;52.684;9.758;2024-01-06T11:50:56;15.47;;;8.60;;
5650;SDS011;40241;52.684;9.758;2024-01-06T11:53:23;11.80;;;7.03;;
5650;SDS011;40241;52.684;9.758;2024-01-06T11:55:52;15.83;;;7.77;;
5650;SDS011;40241;52.684;9.758;2024-01-06T11:58:17;12.87;;;7.73;;
5650;SDS011;40241;52.684;9.758;2024-01-06T12:00:42;18.77;;;8.20;;
5650;SDS011;40241;52.684;9.758;2024-01-06T12:03:09;13.50;;;7.43;;
5650;SDS011;40241;52.684;9.758;2024-01-06T12:05:35;16.87;;;8.27;;
5650;SDS011;40241;52.684;9.758;2024-01-06T12:08:01;12.60;;;7.37;;
5650;SDS011;40241;52.684;9.758;2024-01-06T12:10:31;14.40;;;7.20;;
5650;SDS011;40241;52.684;9.758;2024-01-06T12:13:01;10.77;;;6.50;;
5650;SDS011;40241;52.684;9.758;2024-01-06T12:15:29;11.80;;;6.97;;
5650;SDS011;40241;52.684;9.758;2024-01-06T12:17:56;13.30;;;7.20;;
5650;SDS011;40241;52.684;9.758;2024-01-06T12:20:22;9.30;;;6.17;;
5650;SDS011;40241;52.684;9.758;2024-01-06T12:22:48;13.03;;;7.20;;
5650;SDS011;40241;52.684;9.758;2024-01-06T12:25:16;7.63;;;5.67;;
5650;SDS011;40241;52.684;9.758;2024-01-06T12:27:42;12.90;;;6.60;;
5650;SDS011;40241;52.684;9.758;2024-01-06T12:30:12;13.77;;;6.70;;
5650;SDS011;40241;52.684;9.758;2024-01-06T12:32:42;10.93;;;6.50;;
5650;SDS011;40241;52.684;9.758;2024-01-06T12:35:09;9.43;;;5.50;;
5650;SDS011;40241;52.684;9.758;2024-01-06T12:37:35;11.03;;;5.97;;
5650;SDS011;40241;52.684;9.758;2024-01-06T12:40:01;13.00;;;6.13;;
5650;SDS011;40241;52.684;9.758;2024-01-06T12:42:26;8.93;;;5.57;;
5650;SDS011;40241;52.684;9.758;2024-01-06T12:44:52;6.83;;;4.80;;
5650;SDS011;40241;52.684;9.758;2024-01-06T12:47:17;8.30;;;5.47;;
5650;SDS011;40241;52.684;9.758;2024-01-06T12:49:43;7.57;;;5.03;;
5650;SDS011;40241;52.684;9.758;2024-01-06T12:52:08;9.97;;;5.83;;
5650;SDS011;40241;52.684;9.758;2024-01-06T12:54:34;9.63;;;5.10;;
5650;SDS011;40241;52.684;9.758;2024-01-06T12:56:59;8.17;;;5.00;;
5650;SDS011;40241;52.684;9.758;2024-01-06T12:59:25;7.13;;;4.40;;
5650;SDS011;40241;52.684;9.758;2024-01-06T13:01:50;6.10;;;4.33;;
5650;SDS011;40241;52.684;9.758;2024-01-06T13:04:15;6.40;;;4.67;;
5650;SDS011;40241;52.684;9.758;2024-01-06T13:06:41;6.00;;;4.00;;
5650;SDS011;40241;52.684;9.758;2024-01-06T13:09:07;5.93;;;4.20;;
5650;SDS011;40241;52.684;9.758;2024-01-06T13:11:34;7.10;;;4.90;;
5650;SDS011;40241;52.684;9.758;2024-01-06T13:14:01;6.43;;;4.20;;
5650;SDS011;40241;52.684;9.758;2024-01-06T13:16:26;5.87;;;4.10;;
5650;SDS011;40241;52.684;9.758;2024-01-06T13:18:52;7.13;;;4.80;;
5650;SDS011;40241;52.684;9.758;2024-01-06T13:21:17;7.13;;;4.17;;
5650;SDS011;40241;52.684;9.758;2024-01-06T13:23:43;4.80;;;3.83;;
5650;SDS011;40241;52.684;9.758;2024-01-06T13:26:08;5.27;;;3.57;;
5650;SDS011;40241;52.684;9.758;2024-01-06T13:28:33;5.93;;;3.80;;
5650;SDS011;40241;52.684;9.758;2024-01-06T13:30:59;6.53;;;4.27;;
5650;SDS011;40241;52.684;9.758;2024-01-06T13:33:25;5.80;;;4.27;;
5650;SDS011;40241;52.684;9.758;2024-01-06T13:35:50;5.37;;;4.10;;
5650;SDS011;40241;52.684;9.758;2024-01-06T13:38:16;5.07;;;4.13;;
5650;SDS011;40241;52.684;9.758;2024-01-06T13:40:41;6.33;;;3.90;;
5650;SDS011;40241;52.684;9.758;2024-01-06T13:43:06;6.50;;;4.27;;
5650;SDS011;40241;52.684;9.758;2024-01-06T13:45:34;5.07;;;4.20;;
5650;SDS011;40241;52.684;9.758;2024-01-06T13:48:00;6.03;;;4.70;;
5650;SDS011;40241;52.684;9.758;2024-01-06T13:50:25;5.93;;;4.60;;
5650;SDS011;40241;52.684;9.758;2024-01-06T13:52:50;8.50;;;5.30;;
5650;SDS011;40241;52.684;9.758;2024-01-06T13:55:16;6.70;;;4.30;;
5650;SDS011;40241;52.684;9.758;2024-01-06T13:57:41;6.40;;;4.73;;
5650;SDS011;40241;52.684;9.758;2024-01-06T14:00:10;8.17;;;4.73;;
5650;SDS011;40241;52.684;9.758;2024-01-06T14:02:39;7.73;;;4.90;;
5650;SDS011;40241;52.684;9.758;2024-01-06T14:05:05;7.80;;;4.67;;
5650;SDS011;40241;52.684;9.758;2024-01-06T14:07:33;7.67;;;4.40;;
5650;SDS011;40241;52.684;9.758;2024-01-06T14:09:59;8.93;;;5.37;;
5650;SDS011;40241;52.684;9.758;2024-01-06T14:12:24;8.83;;;5.23;;
5650;SDS011;40241;52.684;9.758;2024-01-06T14:14:50;6.37;;;4.80;;
5650;SDS011;40241;52.684;9.758;2024-01-06T14:17:15;7.33;;;5.20;;
5650;SDS011;40241;52.684;9.758;2024-01-06T14:19:40;8.70;;;5.40;;
5650;SDS011;40241;52.684;9.758;2024-01-06T14:22:07;6.23;;;4.47;;
5650;SDS011;40241;52.684;9.758;2024-01-06T14:24:32;6.90;;;5.00;;
5650;SDS011;40241;52.684;9.758;2024-01-06T14:26:57;6.83;;;4.97;;
5650;SDS011;40241;52.684;9.758;2024-01-06T14:29:23;9.80;;;5.60;;
5650;SDS011;40241;52.684;9.758;2024-01-06T14:31:48;11.13;;;4.73;;
5650;SDS011;40241;52.684;9.758;2024-01-06T14:34:14;10.47;;;5.90;;
5650;SDS011;40241;52.684;9.758;2024-01-06T14:36:39;8.17;;;5.00;;
5650;SDS011;40241;52.684;9.758;2024-01-06T14:39:12;7.60;;;4.90;;
5650;SDS011;40241;52.684;9.758;2024-01-06T14:41:38;8.10;;;5.83;;
5650;SDS011;40241;52.684;9.758;2024-01-06T14:44:03;9.70;;;6.13;;
5650;SDS011;40241;52.684;9.758;2024-01-06T14:46:29;7.90;;;5.30;;
5650;SDS011;40241;52.684;9.758;2024-01-06T14:48:56;11.80;;;5.37;;
5650;SDS011;40241;52.684;9.758;2024-01-06T14:51:21;11.73;;;6.40;;